sensor_id;sensor_type;location;lat;lon;timestamp;P1;durP1;ratioP1;P2;durP2;ratioP2
47349;SDS011;33088;51.982;5.872;2023-04-12T00:01:08;7.53;;;2.28;;
47349;SDS011;33088;51.982;5.872;2023-04-12T00:03:34;6.25;;;1.92;;
47349;SDS011;33088;51.982;5.872;2023-04-12T00:06:00;7.57;;;2.15;;
47349;SDS011;33088;51.982;5.872;2023-04-12T00:08:28;14.05;;;2.97;;
47349;SDS011;33088;51.982;5.872;2023-04-12T00:11:01;11.07;;;2.13;;
47349;SDS011;33088;51.982;5.872;2023-04-12T00:13:27;9.95;;;2.45;;
47349;SDS011;33088;51.982;5.872;2023-04-12T00:15:54;8.60;;;2.70;;
47349;SDS011;33088;51.982;5.872;2023-04-12T00:18:21;9.93;;;2.30;;
47349;SDS011;33088;51.982;5.872;2023-04-12T00:20:50;14.88;;;3.40;;
47349;SDS011;33088;51.982;5.872;2023-04-12T00:23:16;7.07;;;2.40;;
47349;SDS011;33088;51.982;5.872;2023-04-12T00:25:42;12.80;;;2.65;;
47349;SDS011;33088;51.982;5.872;2023-04-12T00:28:08;9.82;;;2.50;;
47349;SDS011;33088;51.982;5.872;2023-04-12T00:30:34;10.20;;;3.53;;
47349;SDS011;33088;51.982;5.872;2023-04-12T00:33:00;11.45;;;2.65;;
47349;SDS011;33088;51.982;5.872;2023-04-12T00:35:25;9.18;;;3.95;;
47349;SDS011;33088;51.982;5.872;2023-04-12T00:37:51;11.18;;;3.00;;
47349;SDS011;33088;51.982;5.872;2023-04-12T00:40:17;10.55;;;2.72;;
47349;SDS011;33088;51.982;5.872;2023-04-12T00:42:43;7.18;;;2.83;;
47349;SDS011;33088;51.982;5.872;2023-04-12T00:45:08;10.88;;;2.67;;
47349;SDS011;33088;51.982;5.872;2023-04-12T00:47:35;9.43;;;2.55;;
47349;SDS011;33088;51.982;5.872;2023-04-12T00:50:02;10.23;;;2.80;;
47349;SDS011;33088;51.982;5.872;2023-04-12T00:52:29;10.48;;;3.03;;
47349;SDS011;33088;51.982;5.872;2023-04-12T00:54:59;7.97;;;2.55;;
47349;SDS011;33088;51.982;5.872;2023-04-12T00:57:27;9.13;;;3.38;;
47349;SDS011;33088;51.982;5.872;2023-04-12T01:00:00;6.60;;;2.42;;
47349;SDS011;33088;51.982;5.872;2023-04-12T01:02:29;11.35;;;3.28;;
47349;SDS011;33088;51.982;5.872;2023-04-12T01:04:55;7.95;;;2.15;;
47349;SDS011;33088;51.982;5.872;2023-04-12T01:07:33;5.00;;;2.10;;
47349;SDS011;33088;51.982;5.872;2023-04-12T01:10:15;6.00;;;1.73;;
47349;SDS011;33088;51.982;5.872;2023-04-12T01:15:49;4.70;;;2.10;;
47349;SDS011;33088;51.982;5.872;2023-04-12T01:18:23;11.05;;;4.07;;
47349;SDS011;33088;51.982;5.872;2023-04-12T01:21:04;8.98;;;2.40;;
47349;SDS011;33088;51.982;5.872;2023-04-12T01:23:40;6.22;;;1.90;;
47349;SDS011;33088;51.982;5.872;2023-04-12T01:29:15;9.02;;;3.08;;
47349;SDS011;33088;51.982;5.872;2023-04-12T01:31:53;4.63;;;1.95;;
47349;SDS011;33088;51.982;5.872;2023-04-12T01:34:23;8.23;;;1.83;;
47349;SDS011;33088;51.982;5.872;2023-04-12T01:36:52;6.22;;;1.70;;
47349;SDS011;33088;51.982;5.872;2023-04-12T01:39:19;7.82;;;2.47;;
47349;SDS011;33088;51.982;5.872;2023-04-12T01:41:47;7.53;;;2.10;;
47349;SDS011;33088;51.982;5.872;2023-04-12T01:44:14;4.88;;;2.05;;
47349;SDS011;33088;51.982;5.872;2023-04-12T01:46:41;6.07;;;2.75;;
47349;SDS011;33088;51.982;5.872;2023-04-12T01:49:08;8.02;;;3.15;;
47349;SDS011;33088;51.982;5.872;2023-04-12T01:51:47;10.10;;;2.72;;
47349;SDS011;33088;51.982;5.872;2023-04-12T01:54:29;8.43;;;2.70;;
47349;SDS011;33088;51.982;5.872;2023-04-12T01:56:59;11.95;;;2.22;;
47349;SDS011;33088;51.982;5.872;2023-04-12T01:59:39;7.50;;;2.35;;
47349;SDS011;33088;51.982;5.872;2023-04-12T02:02:09;6.43;;;2.42;;
47349;SDS011;33088;51.982;5.872;2023-04-12T02:04:36;6.20;;;2.50;;
47349;SDS011;33088;51.982;5.872;2023-04-12T02:07:02;12.30;;;3.10;;
47349;SDS011;33088;51.982;5.872;2023-04-12T02:09:29;15.15;;;3.60;;
47349;SDS011;33088;51.982;5.872;2023-04-12T02:11:55;10.15;;;2.92;;
47349;SDS011;33088;51.982;5.872;2023-04-12T02:14:21;6.97;;;2.67;;
47349;SDS011;33088;51.982;5.872;2023-04-12T02:16:46;6.88;;;2.42;;
47349;SDS011;33088;51.982;5.872;2023-04-12T02:19:14;5.25;;;2.65;;
47349;SDS011;33088;51.982;5.872;2023-04-12T02:21:42;8.00;;;2.60;;
47349;SDS011;33088;51.982;5.872;2023-04-12T02:24:11;8.60;;;3.80;;
47349;SDS011;33088;51.982;5.872;2023-04-12T02:26:39;4.93;;;2.83;;
47349;SDS011;33088;51.982;5.872;2023-04-12T02:29:08;5.82;;;2.20;;
47349;SDS011;33088;51.982;5.872;2023-04-12T02:31:35;7.93;;;2.95;;
47349;SDS011;33088;51.982;5.872;2023-04-12T02:34:04;8.20;;;2.70;;
47349;SDS011;33088;51.982;5.872;2023-04-12T02:36:30;8.77;;;3.20;;
47349;SDS011;33088;51.982;5.872;2023-04-12T02:38:56;7.45;;;2.75;;
47349;SDS011;33088;51.982;5.872;2023-04-12T02:41:23;4.28;;;2.40;;
47349;SDS011;33088;51.982;5.872;2023-04-12T02:43:49;15.63;;;2.97;;
47349;SDS011;33088;51.982;5.872;2023-04-12T02:46:22;8.57;;;3.28;;
47349;SDS011;33088;51.982;5.872;2023-04-12T02:48:55;8.55;;;2.67;;
47349;SDS011;33088;51.982;5.872;2023-04-12T02:51:28;8.52;;;2.40;;
47349;SDS011;33088;51.982;5.872;2023-04-12T02:53:54;12.43;;;2.25;;
47349;SDS011;33088;51.982;5.872;2023-04-12T02:56:22;8.38;;;2.42;;
47349;SDS011;33088;51.982;5.872;2023-04-12T02:58:54;4.93;;;2.42;;
47349;SDS011;33088;51.982;5.872;2023-04-12T03:01:34;3.80;;;2.25;;
47349;SDS011;33088;51.982;5.872;2023-04-12T03:04:32;5.38;;;2.15;;
47349;SDS011;33088;51.982;5.872;2023-04-12T03:06:59;8.25;;;2.53;;
47349;SDS011;33088;51.982;5.872;2023-04-12T03:09:37;6.30;;;2.17;;
47349;SDS011;33088;51.982;5.872;2023-04-12T03:12:06;7.68;;;2.30;;
47349;SDS011;33088;51.982;5.872;2023-04-12T03:14:38;5.57;;;1.97;;
47349;SDS011;33088;51.982;5.872;2023-04-12T03:17:05;5.28;;;1.88;;
47349;SDS011;33088;51.982;5.872;2023-04-12T03:19:34;12.02;;;3.53;;
47349;SDS011;33088;51.982;5.872;2023-04-12T03:22:01;4.25;;;2.20;;
47349;SDS011;33088;51.982;5.872;2023-04-12T03:24:31;6.13;;;2.00;;
47349;SDS011;33088;51.982;5.872;2023-04-12T03:27:03;4.45;;;2.42;;
47349;SDS011;33088;51.982;5.872;2023-04-12T03:29:32;5.57;;;2.50;;
47349;SDS011;33088;51.982;5.872;2023-04-12T03:31:58;6.82;;;2.17;;
47349;SDS011;33088;51.982;5.872;2023-04-12T03:34:25;5.28;;;2.05;;
47349;SDS011;33088;51.982;5.872;2023-04-12T03:36:56;7.07;;;2.38;;
47349;SDS011;33088;51.982;5.872;2023-04-12T03:39:35;7.28;;;2.40;;
47349;SDS011;33088;51.982;5.872;2023-04-12T03:42:01;4.30;;;2.33;;
47349;SDS011;33088;51.982;5.872;2023-04-12T03:44:27;10.48;;;2.63;;
47349;SDS011;33088;51.982;5.872;2023-04-12T03:46:55;5.57;;;2.55;;
47349;SDS011;33088;51.982;5.872;2023-04-12T03:49:21;7.45;;;2.72;;
47349;SDS011;33088;51.982;5.872;2023-04-12T03:51:47;3.42;;;2.30;;
47349;SDS011;33088;51.982;5.872;2023-04-12T03:54:14;6.18;;;3.00;;
47349;SDS011;33088;51.982;5.872;2023-04-12T03:56:57;7.55;;;3.13;;
47349;SDS011;33088;51.982;5.872;2023-04-12T03:59:29;6.35;;;3.03;;
47349;SDS011;33088;51.982;5.872;2023-04-12T04:01:55;4.35;;;2.42;;
47349;SDS011;33088;51.982;5.872;2023-04-12T04:04:23;12.32;;;3.00;;
47349;SDS011;33088;51.982;5.872;2023-04-12T04:06:52;6.63;;;3.45;;
47349;SDS011;33088;51.982;5.872;2023-04-12T04:09:19;5.68;;;2.80;;
47349;SDS011;33088;51.982;5.872;2023-04-12T04:11:45;9.32;;;3.00;;
47349;SDS011;33088;51.982;5.872;2023-04-12T04:14:11;6.65;;;3.28;;
47349;SDS011;33088;51.982;5.872;2023-04-12T04:16:37;9.57;;;3.80;;
47349;SDS011;33088;51.982;5.872;2023-04-12T04:19:05;7.53;;;3.25;;
47349;SDS011;33088;51.982;5.872;2023-04-12T04:21:31;8.32;;;4.43;;
47349;SDS011;33088;51.982;5.872;2023-04-12T04:23:59;7.10;;;3.25;;
47349;SDS011;33088;51.982;5.872;2023-04-12T04:26:33;8.60;;;3.88;;
47349;SDS011;33088;51.982;5.872;2023-04-12T04:29:06;6.70;;;2.85;;
47349;SDS011;33088;51.982;5.872;2023-04-12T04:31:35;7.00;;;2.95;;
47349;SDS011;33088;51.982;5.872;2023-04-12T04:34:03;6.45;;;2.90;;
47349;SDS011;33088;51.982;5.872;2023-04-12T04:36:33;3.80;;;3.17;;
47349;SDS011;33088;51.982;5.872;2023-04-12T04:39:01;9.27;;;3.50;;
47349;SDS011;33088;51.982;5.872;2023-04-12T04:41:39;12.45;;;3.75;;
47349;SDS011;33088;51.982;5.872;2023-04-12T04:44:11;11.10;;;3.40;;
47349;SDS011;33088;51.982;5.872;2023-04-12T04:46:44;5.25;;;3.53;;
47349;SDS011;33088;51.982;5.872;2023-04-12T04:49:10;11.15;;;4.35;;
47349;SDS011;33088;51.982;5.872;2023-04-12T04:51:36;5.68;;;3.72;;
47349;SDS011;33088;51.982;5.872;2023-04-12T04:54:02;6.53;;;4.05;;
47349;SDS011;33088;51.982;5.872;2023-04-12T04:56:29;5.50;;;4.03;;
47349;SDS011;33088;51.982;5.872;2023-04-12T04:58:55;7.60;;;3.75;;
47349;SDS011;33088;51.982;5.872;2023-04-12T05:01:25;6.95;;;4.32;;
47349;SDS011;33088;51.982;5.872;2023-04-12T05:03:52;8.57;;;4.32;;
47349;SDS011;33088;51.982;5.872;2023-04-12T05:06:20;6.32;;;3.47;;
47349;SDS011;33088;51.982;5.872;2023-04-12T05:08:46;4.82;;;3.80;;
47349;SDS011;33088;51.982;5.872;2023-04-12T05:11:15;7.57;;;4.78;;
47349;SDS011;33088;51.982;5.872;2023-04-12T05:13:40;6.50;;;4.57;;
47349;SDS011;33088;51.982;5.872;2023-04-12T05:16:07;10.20;;;5.03;;
47349;SDS011;33088;51.982;5.872;2023-04-12T05:18:33;10.68;;;4.18;;
47349;SDS011;33088;51.982;5.872;2023-04-12T05:21:02;6.13;;;3.70;;
47349;SDS011;33088;51.982;5.872;2023-04-12T05:23:35;6.05;;;4.10;;
47349;SDS011;33088;51.982;5.872;2023-04-12T05:26:02;7.35;;;3.63;;
47349;SDS011;33088;51.982;5.872;2023-04-12T05:28:31;6.53;;;3.90;;
47349;SDS011;33088;51.982;5.872;2023-04-12T05:30:57;7.22;;;3.72;;
47349;SDS011;33088;51.982;5.872;2023-04-12T05:33:31;8.07;;;4.25;;
47349;SDS011;33088;51.982;5.872;2023-04-12T05:35:59;7.25;;;3.58;;
47349;SDS011;33088;51.982;5.872;2023-04-12T05:38:26;7.80;;;4.00;;
47349;SDS011;33088;51.982;5.872;2023-04-12T05:40:55;4.70;;;3.25;;
47349;SDS011;33088;51.982;5.872;2023-04-12T05:43:22;8.07;;;3.80;;
47349;SDS011;33088;51.982;5.872;2023-04-12T05:45:49;6.70;;;3.85;;
47349;SDS011;33088;51.982;5.872;2023-04-12T05:48:15;6.32;;;4.10;;
47349;SDS011;33088;51.982;5.872;2023-04-12T05:50:49;3.83;;;3.45;;
47349;SDS011;33088;51.982;5.872;2023-04-12T05:53:17;5.47;;;4.40;;
47349;SDS011;33088;51.982;5.872;2023-04-12T05:55:43;3.05;;;2.75;;
47349;SDS011;33088;51.982;5.872;2023-04-12T05:58:10;8.32;;;3.58;;
47349;SDS011;33088;51.982;5.872;2023-04-12T06:00:36;6.45;;;3.38;;
47349;SDS011;33088;51.982;5.872;2023-04-12T06:03:03;4.95;;;2.97;;
47349;SDS011;33088;51.982;5.872;2023-04-12T06:05:29;6.15;;;3.97;;
47349;SDS011;33088;51.982;5.872;2023-04-12T06:07:55;7.05;;;3.38;;
47349;SDS011;33088;51.982;5.872;2023-04-12T06:10:23;8.55;;;4.70;;
47349;SDS011;33088;51.982;5.872;2023-04-12T06:12:51;8.50;;;4.05;;
47349;SDS011;33088;51.982;5.872;2023-04-12T06:15:18;7.47;;;4.15;;
47349;SDS011;33088;51.982;5.872;2023-04-12T06:17:49;3.47;;;3.17;;
47349;SDS011;33088;51.982;5.872;2023-04-12T06:20:16;5.22;;;3.78;;
47349;SDS011;33088;51.982;5.872;2023-04-12T06:22:42;6.35;;;4.10;;
47349;SDS011;33088;51.982;5.872;2023-04-12T06:25:08;3.80;;;3.47;;
47349;SDS011;33088;51.982;5.872;2023-04-12T06:27:34;6.47;;;3.83;;
47349;SDS011;33088;51.982;5.872;2023-04-12T06:29:59;4.55;;;3.10;;
47349;SDS011;33088;51.982;5.872;2023-04-12T06:32:25;4.40;;;3.08;;
47349;SDS011;33088;51.982;5.872;2023-04-12T06:34:52;9.85;;;3.92;;
47349;SDS011;33088;51.982;5.872;2023-04-12T06:37:18;4.13;;;3.72;;
47349;SDS011;33088;51.982;5.872;2023-04-12T06:39:44;9.32;;;3.40;;
47349;SDS011;33088;51.982;5.872;2023-04-12T06:42:10;6.55;;;3.80;;
47349;SDS011;33088;51.982;5.872;2023-04-12T06:44:38;4.70;;;3.60;;
47349;SDS011;33088;51.982;5.872;2023-04-12T06:47:03;5.82;;;3.53;;
47349;SDS011;33088;51.982;5.872;2023-04-12T06:49:29;5.68;;;3.97;;
47349;SDS011;33088;51.982;5.872;2023-04-12T06:51:55;5.00;;;2.80;;
47349;SDS011;33088;51.982;5.872;2023-04-12T06:54:20;4.03;;;3.72;;
47349;SDS011;33088;51.982;5.872;2023-04-12T06:56:46;5.63;;;3.22;;
47349;SDS011;33088;51.982;5.872;2023-04-12T06:59:12;3.28;;;2.90;;
47349;SDS011;33088;51.982;5.872;2023-04-12T07:01:37;6.22;;;3.63;;
47349;SDS011;33088;51.982;5.872;2023-04-12T07:04:03;3.55;;;3.22;;
47349;SDS011;33088;51.982;5.872;2023-04-12T07:06:29;3.83;;;3.50;;
47349;SDS011;33088;51.982;5.872;2023-04-12T07:08:55;5.55;;;4.05;;
47349;SDS011;33088;51.982;5.872;2023-04-12T07:11:21;5.32;;;3.55;;
47349;SDS011;33088;51.982;5.872;2023-04-12T07:13:47;8.60;;;4.93;;
47349;SDS011;33088;51.982;5.872;2023-04-12T07:16:12;5.10;;;4.35;;
47349;SDS011;33088;51.982;5.872;2023-04-12T07:18:41;5.95;;;4.57;;
47349;SDS011;33088;51.982;5.872;2023-04-12T07:21:06;5.03;;;3.95;;
47349;SDS011;33088;51.982;5.872;2023-04-12T07:23:32;5.20;;;4.68;;
47349;SDS011;33088;51.982;5.872;2023-04-12T07:25:58;4.63;;;3.80;;
47349;SDS011;33088;51.982;5.872;2023-04-12T07:28:25;8.68;;;4.57;;
47349;SDS011;33088;51.982;5.872;2023-04-12T07:30:51;5.20;;;4.03;;
47349;SDS011;33088;51.982;5.872;2023-04-12T07:33:20;5.90;;;3.95;;
47349;SDS011;33088;51.982;5.872;2023-04-12T07:35:45;5.72;;;3.58;;
47349;SDS011;33088;51.982;5.872;2023-04-12T07:38:11;4.25;;;3.80;;
47349;SDS011;33088;51.982;5.872;2023-04-12T07:40:36;6.68;;;4.50;;
47349;SDS011;33088;51.982;5.872;2023-04-12T07:43:05;6.82;;;4.50;;
47349;SDS011;33088;51.982;5.872;2023-04-12T07:45:31;6.53;;;3.72;;
47349;SDS011;33088;51.982;5.872;2023-04-12T07:47:56;4.25;;;3.85;;
47349;SDS011;33088;51.982;5.872;2023-04-12T07:50:22;5.28;;;3.53;;
47349;SDS011;33088;51.982;5.872;2023-04-12T07:52:48;4.88;;;3.67;;
47349;SDS011;33088;51.982;5.872;2023-04-12T07:55:13;3.78;;;3.35;;
47349;SDS011;33088;51.982;5.872;2023-04-12T07:57:39;4.72;;;3.38;;
47349;SDS011;33088;51.982;5.872;2023-04-12T08:00:05;5.72;;;3.72;;
47349;SDS011;33088;51.982;5.872;2023-04-12T08:02:38;5.35;;;3.60;;
47349;SDS011;33088;51.982;5.872;2023-04-12T08:05:03;5.25;;;3.28;;
47349;SDS011;33088;51.982;5.872;2023-04-12T08:07:30;5.03;;;3.78;;
47349;SDS011;33088;51.982;5.872;2023-04-12T08:09:55;5.38;;;3.80;;
47349;SDS011;33088;51.982;5.872;2023-04-12T08:12:24;9.32;;;4.43;;
47349;SDS011;33088;51.982;5.872;2023-04-12T08:14:50;9.63;;;4.68;;
47349;SDS011;33088;51.982;5.872;2023-04-12T08:17:15;7.85;;;4.53;;
47349;SDS011;33088;51.982;5.872;2023-04-12T08:19:41;5.88;;;3.78;;
47349;SDS011;33088;51.982;5.872;2023-04-12T08:22:07;9.13;;;3.53;;
47349;SDS011;33088;51.982;5.872;2023-04-12T08:24:36;15.05;;;3.65;;
47349;SDS011;33088;51.982;5.872;2023-04-12T08:27:01;8.52;;;3.53;;
47349;SDS011;33088;51.982;5.872;2023-04-12T08:29:27;9.63;;;3.10;;
47349;SDS011;33088;51.982;5.872;2023-04-12T08:31:53;10.60;;;3.25;;
47349;SDS011;33088;51.982;5.872;2023-04-12T08:34:20;11.48;;;3.58;;
47349;SDS011;33088;51.982;5.872;2023-04-12T08:36:46;8.18;;;3.50;;
47349;SDS011;33088;51.982;5.872;2023-04-12T08:39:12;5.55;;;2.83;;
47349;SDS011;33088;51.982;5.872;2023-04-12T08:41:37;9.15;;;2.78;;
47349;SDS011;33088;51.982;5.872;2023-04-12T08:44:03;10.27;;;3.33;;
47349;SDS011;33088;51.982;5.872;2023-04-12T08:46:29;14.55;;;4.45;;
47349;SDS011;33088;51.982;5.872;2023-04-12T08:48:55;9.32;;;3.10;;
47349;SDS011;33088;51.982;5.872;2023-04-12T08:51:22;10.50;;;3.05;;
47349;SDS011;33088;51.982;5.872;2023-04-12T08:53:48;8.18;;;2.88;;
47349;SDS011;33088;51.982;5.872;2023-04-12T08:56:15;7.63;;;2.95;;
47349;SDS011;33088;51.982;5.872;2023-04-12T08:58:43;8.18;;;2.55;;
47349;SDS011;33088;51.982;5.872;2023-04-12T09:01:10;8.27;;;3.00;;
47349;SDS011;33088;51.982;5.872;2023-04-12T09:03:43;13.20;;;2.92;;
47349;SDS011;33088;51.982;5.872;2023-04-12T09:06:10;10.45;;;2.70;;
47349;SDS011;33088;51.982;5.872;2023-04-12T09:08:37;19.80;;;4.15;;
47349;SDS011;33088;51.982;5.872;2023-04-12T09:13:45;14.15;;;2.88;;
47349;SDS011;33088;51.982;5.872;2023-04-12T09:16:11;12.55;;;3.00;;
47349;SDS011;33088;51.982;5.872;2023-04-12T09:18:47;12.80;;;3.97;;
47349;SDS011;33088;51.982;5.872;2023-04-12T09:21:14;8.50;;;3.00;;
47349;SDS011;33088;51.982;5.872;2023-04-12T09:23:40;10.50;;;3.30;;
47349;SDS011;33088;51.982;5.872;2023-04-12T09:26:05;12.43;;;3.30;;
47349;SDS011;33088;51.982;5.872;2023-04-12T09:28:32;9.45;;;3.50;;
47349;SDS011;33088;51.982;5.872;2023-04-12T09:30:58;16.63;;;4.05;;
47349;SDS011;33088;51.982;5.872;2023-04-12T09:36:03;19.20;;;4.18;;
47349;SDS011;33088;51.982;5.872;2023-04-12T09:38:33;12.02;;;3.05;;
47349;SDS011;33088;51.982;5.872;2023-04-12T09:41:13;9.30;;;3.28;;
47349;SDS011;33088;51.982;5.872;2023-04-12T09:43:43;11.85;;;3.35;;
47349;SDS011;33088;51.982;5.872;2023-04-12T09:46:12;16.85;;;4.30;;
47349;SDS011;33088;51.982;5.872;2023-04-12T09:48:39;12.90;;;3.70;;
47349;SDS011;33088;51.982;5.872;2023-04-12T09:51:06;10.30;;;3.10;;
47349;SDS011;33088;51.982;5.872;2023-04-12T09:53:35;9.30;;;3.40;;
47349;SDS011;33088;51.982;5.872;2023-04-12T09:56:05;9.05;;;2.97;;
47349;SDS011;33088;51.982;5.872;2023-04-12T09:58:35;10.80;;;3.38;;
47349;SDS011;33088;51.982;5.872;2023-04-12T10:01:03;19.55;;;3.65;;
47349;SDS011;33088;51.982;5.872;2023-04-12T10:03:32;16.30;;;3.58;;
47349;SDS011;33088;51.982;5.872;2023-04-12T10:06:01;19.02;;;4.03;;
47349;SDS011;33088;51.982;5.872;2023-04-12T10:08:29;17.63;;;3.72;;
47349;SDS011;33088;51.982;5.872;2023-04-12T10:10:58;13.20;;;2.72;;
47349;SDS011;33088;51.982;5.872;2023-04-12T10:13:25;21.00;;;2.97;;
47349;SDS011;33088;51.982;5.872;2023-04-12T10:15:51;17.90;;;4.20;;
47349;SDS011;33088;51.982;5.872;2023-04-12T10:18:19;13.82;;;2.78;;
47349;SDS011;33088;51.982;5.872;2023-04-12T10:20:46;17.23;;;3.63;;
47349;SDS011;33088;51.982;5.872;2023-04-12T10:23:19;16.02;;;3.22;;
47349;SDS011;33088;51.982;5.872;2023-04-12T10:25:57;17.20;;;3.28;;
47349;SDS011;33088;51.982;5.872;2023-04-12T10:28:34;16.73;;;3.78;;
47349;SDS011;33088;51.982;5.872;2023-04-12T10:33:55;18.77;;;3.83;;
47349;SDS011;33088;51.982;5.872;2023-04-12T10:39:16;16.05;;;3.35;;
47349;SDS011;33088;51.982;5.872;2023-04-12T10:42:29;14.98;;;3.33;;
47349;SDS011;33088;51.982;5.872;2023-04-12T10:44:39;20.27;;;4.22;;
47349;SDS011;33088;51.982;5.872;2023-04-12T10:47:05;14.70;;;3.58;;
47349;SDS011;33088;51.982;5.872;2023-04-12T10:49:30;15.88;;;4.15;;
47349;SDS011;33088;51.982;5.872;2023-04-12T10:56:51;17.58;;;3.53;;
47349;SDS011;33088;51.982;5.872;2023-04-12T11:04:35;14.70;;;3.65;;
47349;SDS011;33088;51.982;5.872;2023-04-12T11:09:54;14.32;;;3.30;;
47349;SDS011;33088;51.982;5.872;2023-04-12T11:12:31;17.05;;;3.53;;
47349;SDS011;33088;51.982;5.872;2023-04-12T11:15:00;16.92;;;3.78;;
47349;SDS011;33088;51.982;5.872;2023-04-12T11:17:55;14.55;;;2.92;;
47349;SDS011;33088;51.982;5.872;2023-04-12T11:20:21;14.77;;;2.75;;
47349;SDS011;33088;51.982;5.872;2023-04-12T11:22:50;18.50;;;3.30;;
47349;SDS011;33088;51.982;5.872;2023-04-12T11:25:16;18.73;;;3.70;;
47349;SDS011;33088;51.982;5.872;2023-04-12T11:27:48;15.55;;;2.75;;
47349;SDS011;33088;51.982;5.872;2023-04-12T11:30:25;15.70;;;2.97;;
47349;SDS011;33088;51.982;5.872;2023-04-12T11:32:50;13.35;;;3.20;;
47349;SDS011;33088;51.982;5.872;2023-04-12T11:35:16;15.88;;;3.47;;
47349;SDS011;33088;51.982;5.872;2023-04-12T11:37:47;22.95;;;4.32;;
47349;SDS011;33088;51.982;5.872;2023-04-12T11:40:12;19.75;;;3.65;;
47349;SDS011;33088;51.982;5.872;2023-04-12T11:42:38;16.33;;;4.15;;
47349;SDS011;33088;51.982;5.872;2023-04-12T11:45:05;24.13;;;3.53;;
47349;SDS011;33088;51.982;5.872;2023-04-12T11:47:31;15.98;;;3.45;;
47349;SDS011;33088;51.982;5.872;2023-04-12T11:49:57;17.00;;;3.30;;
47349;SDS011;33088;51.982;5.872;2023-04-12T11:52:27;13.45;;;3.35;;
47349;SDS011;33088;51.982;5.872;2023-04-12T11:54:54;22.17;;;4.28;;
47349;SDS011;33088;51.982;5.872;2023-04-12T11:57:23;15.57;;;3.42;;
47349;SDS011;33088;51.982;5.872;2023-04-12T11:59:49;12.07;;;2.75;;
47349;SDS011;33088;51.982;5.872;2023-04-12T12:02:15;10.82;;;2.30;;
47349;SDS011;33088;51.982;5.872;2023-04-12T12:04:43;10.23;;;2.47;;
47349;SDS011;33088;51.982;5.872;2023-04-12T12:07:14;11.52;;;2.63;;
47349;SDS011;33088;51.982;5.872;2023-04-12T12:09:41;13.63;;;2.92;;
47349;SDS011;33088;51.982;5.872;2023-04-12T12:12:12;4.47;;;2.15;;
47349;SDS011;33088;51.982;5.872;2023-04-12T12:14:38;10.70;;;2.63;;
47349;SDS011;33088;51.982;5.872;2023-04-12T12:17:12;10.13;;;2.40;;
47349;SDS011;33088;51.982;5.872;2023-04-12T12:19:40;9.50;;;2.05;;
47349;SDS011;33088;51.982;5.872;2023-04-12T12:22:14;13.95;;;2.45;;
47349;SDS011;33088;51.982;5.872;2023-04-12T12:25:05;10.63;;;1.90;;
47349;SDS011;33088;51.982;5.872;2023-04-12T12:27:33;14.00;;;2.85;;
47349;SDS011;33088;51.982;5.872;2023-04-12T12:30:03;16.65;;;2.50;;
47349;SDS011;33088;51.982;5.872;2023-04-12T12:32:35;14.70;;;2.88;;
47349;SDS011;33088;51.982;5.872;2023-04-12T12:35:06;11.63;;;2.38;;
47349;SDS011;33088;51.982;5.872;2023-04-12T12:37:37;15.27;;;2.92;;
47349;SDS011;33088;51.982;5.872;2023-04-12T12:40:12;12.48;;;3.15;;
47349;SDS011;33088;51.982;5.872;2023-04-12T12:42:43;11.52;;;2.53;;
47349;SDS011;33088;51.982;5.872;2023-04-12T12:45:31;11.90;;;2.08;;
47349;SDS011;33088;51.982;5.872;2023-04-12T12:47:59;12.82;;;2.65;;
47349;SDS011;33088;51.982;5.872;2023-04-12T12:50:29;9.77;;;1.80;;
47349;SDS011;33088;51.982;5.872;2023-04-12T12:52:57;6.65;;;1.80;;
47349;SDS011;33088;51.982;5.872;2023-04-12T12:55:24;9.45;;;1.70;;
47349;SDS011;33088;51.982;5.872;2023-04-12T12:57:57;14.52;;;3.10;;
47349;SDS011;33088;51.982;5.872;2023-04-12T13:00:25;5.93;;;1.65;;
47349;SDS011;33088;51.982;5.872;2023-04-12T13:02:52;8.18;;;1.92;;
47349;SDS011;33088;51.982;5.872;2023-04-12T13:05:18;6.20;;;1.77;;
47349;SDS011;33088;51.982;5.872;2023-04-12T13:07:45;12.45;;;2.00;;
47349;SDS011;33088;51.982;5.872;2023-04-12T13:10:11;10.68;;;1.77;;
47349;SDS011;33088;51.982;5.872;2023-04-12T13:12:36;9.25;;;1.85;;
47349;SDS011;33088;51.982;5.872;2023-04-12T13:15:02;6.80;;;1.42;;
47349;SDS011;33088;51.982;5.872;2023-04-12T13:17:29;6.22;;;1.60;;
47349;SDS011;33088;51.982;5.872;2023-04-12T13:19:57;10.93;;;2.08;;
47349;SDS011;33088;51.982;5.872;2023-04-12T13:22:23;13.15;;;2.03;;
47349;SDS011;33088;51.982;5.872;2023-04-12T13:24:49;6.47;;;1.50;;
47349;SDS011;33088;51.982;5.872;2023-04-12T13:27:15;6.75;;;1.65;;
47349;SDS011;33088;51.982;5.872;2023-04-12T13:29:41;13.80;;;2.40;;
47349;SDS011;33088;51.982;5.872;2023-04-12T13:32:07;13.98;;;2.50;;
47349;SDS011;33088;51.982;5.872;2023-04-12T13:34:33;12.43;;;2.13;;
47349;SDS011;33088;51.982;5.872;2023-04-12T13:37:00;6.55;;;2.45;;
47349;SDS011;33088;51.982;5.872;2023-04-12T13:39:25;10.88;;;1.90;;
47349;SDS011;33088;51.982;5.872;2023-04-12T13:41:51;9.18;;;1.80;;
47349;SDS011;33088;51.982;5.872;2023-04-12T13:44:17;5.55;;;1.55;;
47349;SDS011;33088;51.982;5.872;2023-04-12T13:46:43;9.60;;;2.25;;
47349;SDS011;33088;51.982;5.872;2023-04-12T13:49:09;13.40;;;2.17;;
47349;SDS011;33088;51.982;5.872;2023-04-12T13:51:35;5.50;;;1.38;;
47349;SDS011;33088;51.982;5.872;2023-04-12T13:54:00;7.90;;;1.85;;
47349;SDS011;33088;51.982;5.872;2023-04-12T13:56:26;7.18;;;1.60;;
47349;SDS011;33088;51.982;5.872;2023-04-12T13:58:52;12.02;;;1.83;;
47349;SDS011;33088;51.982;5.872;2023-04-12T14:01:18;6.18;;;1.55;;
47349;SDS011;33088;51.982;5.872;2023-04-12T14:03:46;6.97;;;1.83;;
47349;SDS011;33088;51.982;5.872;2023-04-12T14:06:12;12.93;;;2.25;;
47349;SDS011;33088;51.982;5.872;2023-04-12T14:08:37;5.57;;;1.38;;
47349;SDS011;33088;51.982;5.872;2023-04-12T14:11:03;6.30;;;1.63;;
47349;SDS011;33088;51.982;5.872;2023-04-12T14:13:29;10.35;;;2.15;;
47349;SDS011;33088;51.982;5.872;2023-04-12T14:15:55;9.00;;;1.42;;
47349;SDS011;33088;51.982;5.872;2023-04-12T14:18:21;10.23;;;1.95;;
47349;SDS011;33088;51.982;5.872;2023-04-12T14:20:47;8.57;;;2.45;;
47349;SDS011;33088;51.982;5.872;2023-04-12T14:23:17;8.57;;;1.48;;
47349;SDS011;33088;51.982;5.872;2023-04-12T14:25:43;3.60;;;1.00;;
47349;SDS011;33088;51.982;5.872;2023-04-12T14:28:08;8.43;;;2.00;;
47349;SDS011;33088;51.982;5.872;2023-04-12T14:30:34;4.35;;;1.27;;
47349;SDS011;33088;51.982;5.872;2023-04-12T14:33:00;5.10;;;1.00;;
47349;SDS011;33088;51.982;5.872;2023-04-12T14:35:26;7.00;;;1.10;;
47349;SDS011;33088;51.982;5.872;2023-04-12T14:37:54;3.30;;;1.15;;
47349;SDS011;33088;51.982;5.872;2023-04-12T14:40:20;6.78;;;1.25;;
47349;SDS011;33088;51.982;5.872;2023-04-12T14:42:48;5.85;;;1.42;;
47349;SDS011;33088;51.982;5.872;2023-04-12T14:45:13;4.85;;;1.52;;
47349;SDS011;33088;51.982;5.872;2023-04-12T14:47:39;4.55;;;1.13;;
47349;SDS011;33088;51.982;5.872;2023-04-12T14:50:07;6.15;;;1.20;;
47349;SDS011;33088;51.982;5.872;2023-04-12T14:52:33;3.67;;;1.05;;
47349;SDS011;33088;51.982;5.872;2023-04-12T14:54:59;2.33;;;1.05;;
47349;SDS011;33088;51.982;5.872;2023-04-12T14:57:25;3.65;;;1.13;;
47349;SDS011;33088;51.982;5.872;2023-04-12T14:59:51;4.90;;;1.48;;
47349;SDS011;33088;51.982;5.872;2023-04-12T15:02:16;4.72;;;1.30;;
47349;SDS011;33088;51.982;5.872;2023-04-12T15:04:43;5.13;;;1.55;;
47349;SDS011;33088;51.982;5.872;2023-04-12T15:07:13;6.10;;;1.42;;
47349;SDS011;33088;51.982;5.872;2023-04-12T15:09:38;4.25;;;1.30;;
47349;SDS011;33088;51.982;5.872;2023-04-12T15:12:04;4.03;;;1.23;;
47349;SDS011;33088;51.982;5.872;2023-04-12T15:14:30;4.05;;;1.40;;
47349;SDS011;33088;51.982;5.872;2023-04-12T15:16:56;5.65;;;1.48;;
47349;SDS011;33088;51.982;5.872;2023-04-12T15:19:21;3.25;;;0.95;;